createdAt,value
2023-03-17T00:05:16.234Z,99
2023-03-17T00:15:16.180Z,99
2023-03-17T00:25:16.147Z,99
2023-03-17T00:35:17.118Z,99
2023-03-17T00:45:16.335Z,94
2023-03-17T00:55:16.266Z,85
2023-03-17T01:05:16.023Z,85
2023-03-17T01:15:15.777Z,63
2023-03-17T01:25:15.666Z,68
2023-03-17T01:35:15.576Z,62
2023-03-17T01:45:15.599Z,47
2023-03-17T01:55:15.530Z,39
2023-03-17T02:05:15.384Z,51
2023-03-17T02:15:15.318Z,72
2023-03-17T02:25:15.307Z,78
2023-03-17T02:35:15.181Z,86
2023-03-17T02:45:15.096Z,99
2023-03-17T02:55:15.133Z,99
2023-03-17T03:05:14.934Z,99
2023-03-17T03:15:14.902Z,99
2023-03-17T03:25:14.901Z,99
2023-03-17T03:35:14.786Z,99
2023-03-17T03:45:14.790Z,90
2023-03-17T03:55:14.650Z,94
2023-03-17T04:05:14.516Z,94
2023-03-17T04:15:14.504Z,99
2023-03-17T04:25:14.417Z,99
2023-03-17T04:35:14.352Z,99
2023-03-17T04:45:14.313Z,99
2023-03-17T04:55:14.155Z,99
2023-03-17T05:05:14.063Z,99
2023-03-17T05:15:14.006Z,99
2023-03-17T05:25:13.965Z,99
2023-03-17T05:35:13.901Z,99
2023-03-17T05:45:13.804Z,99
2023-03-17T05:55:13.737Z,99
2023-03-17T06:05:13.637Z,99
2023-03-17T06:15:13.668Z,99
2023-03-17T06:25:13.615Z,99
2023-03-17T06:35:13.498Z,99
2023-03-17T06:45:13.471Z,99
2023-03-17T06:55:13.368Z,99
2023-03-17T07:05:13.221Z,99
2023-03-17T07:15:13.256Z,99
2023-03-17T07:25:13.062Z,99
2023-03-17T07:35:13.021Z,99
2023-03-17T07:45:12.996Z,99
2023-03-17T07:55:12.927Z,99
2023-03-17T08:05:13.738Z,99
2023-03-17T08:15:12.777Z,99
2023-03-17T08:25:12.729Z,99
2023-03-17T08:35:12.576Z,99
2023-03-17T08:45:12.511Z,99
2023-03-17T08:55:12.447Z,99
2023-03-17T09:05:12.426Z,99
2023-03-17T09:15:12.416Z,99
2023-03-17T09:25:12.240Z,99
2023-03-17T09:35:12.276Z,99
2023-03-17T09:45:12.281Z,99
2023-03-17T09:55:12.231Z,99
2023-03-17T10:05:12.115Z,99
2023-03-17T10:15:11.959Z,99
2023-03-17T10:25:11.942Z,99
2023-03-17T10:35:11.828Z,99
2023-03-17T10:45:11.648Z,99
2023-03-17T10:55:11.557Z,99
2023-03-17T11:05:11.665Z,99
2023-03-17T11:15:12.412Z,99
2023-03-17T11:25:11.610Z,99
2023-03-17T11:35:11.463Z,99
2023-03-17T11:45:11.281Z,99
2023-03-17T11:55:11.133Z,99
2023-03-17T12:05:11.150Z,99
2023-03-17T12:15:11.320Z,99
2023-03-17T12:25:11.010Z,99
2023-03-17T12:35:10.900Z,99
2023-03-17T12:45:10.793Z,99
2023-03-17T12:55:10.735Z,99
2023-03-17T13:05:10.753Z,99
2023-03-17T13:15:10.662Z,99
2023-03-17T13:25:10.470Z,99
2023-03-17T13:35:10.541Z,99
2023-03-17T13:45:10.394Z,99
2023-03-17T13:55:10.293Z,99
2023-03-17T14:05:10.197Z,99
2023-03-17T14:15:10.178Z,99
2023-03-17T14:25:10.057Z,99
2023-03-17T14:35:10.010Z,99
2023-03-17T14:45:09.965Z,99
2023-03-17T14:55:09.918Z,99
2023-03-17T15:05:09.765Z,99
2023-03-17T15:15:09.779Z,99
2023-03-17T15:25:09.643Z,99
2023-03-17T15:35:09.641Z,99
2023-03-17T15:45:09.684Z,99
2023-03-17T15:55:09.430Z,1
2023-03-17T16:05:09.347Z,99
2023-03-17T16:15:21.898Z,99
2023-03-17T16:25:09.181Z,99
2023-03-17T16:35:09.180Z,1
2023-03-17T16:45:09.107Z,1
2023-03-17T16:55:09.016Z,1
2023-03-17T17:05:08.969Z,1
2023-03-17T17:15:08.827Z,99
2023-03-17T17:25:08.838Z,99
2023-03-17T17:35:08.801Z,99
2023-03-17T17:45:08.730Z,99
2023-03-17T17:55:08.577Z,99
2023-03-17T18:05:08.985Z,1
2023-03-17T18:15:08.509Z,99
2023-03-17T18:25:09.766Z,99
2023-03-17T18:35:08.437Z,1
2023-03-17T18:45:08.253Z,99
2023-03-17T18:55:08.239Z,99
2023-03-17T19:05:08.094Z,99
2023-03-17T19:15:08.152Z,99
2023-03-17T19:25:07.938Z,99
2023-03-17T19:35:07.937Z,99
2023-03-17T19:45:07.864Z,99
2023-03-17T19:55:08.396Z,99
2023-03-17T20:05:07.780Z,99
2023-03-17T20:15:07.611Z,99
2023-03-17T20:25:07.587Z,99
2023-03-17T20:35:08.191Z,99
2023-03-17T20:45:07.464Z,99
2023-03-17T20:55:07.372Z,99
2023-03-17T21:05:07.230Z,99
2023-03-17T21:15:07.239Z,99
2023-03-17T21:25:07.485Z,99
2023-03-17T21:35:07.110Z,93
2023-03-17T21:45:06.972Z,75
2023-03-17T21:55:07.098Z,50
2023-03-17T22:05:06.795Z,38
2023-03-17T22:15:06.929Z,23
2023-03-17T22:25:06.815Z,15
2023-03-17T22:35:06.657Z,8
2023-03-17T22:45:06.642Z,9
2023-03-17T22:55:06.522Z,3
2023-03-17T23:05:06.401Z,13
2023-03-17T23:15:06.435Z,1
2023-03-17T23:25:06.235Z,1
2023-03-17T23:35:06.191Z,1
2023-03-17T23:45:06.167Z,1
2023-03-17T23:55:06.050Z,1
